Sault Ste. Marie, MI

4:10 AM EDT on August 04, 2015 (GMT -0400)
Water Tower | | Change Station
CLOSE
Current Station
Personal Weather Station
Location: Sault Ste. Marie, ONTARIO
Elevation: 794 ft
Nearby Weather Stations

Elev 794 ft 46.53 °N, 84.32 °W | Updated 47 seconds ago

Partly Cloudy
Partly Cloudy
58.1 °F
Feels Like 58.1 °F
N
2.9
Wind Variable Wind from West
Gusts 4.9 mph

Today
High -- | Low -- °F
--% Chance of Precip.
Yesterday
High -- | Low -- °F
Precip. -- in
6:21 AM 9:04 PM
Waning Gibbous, 80% visible
Pressure 29.79 in
Visibility 10.0 miles
Clouds Few 1200 ft
Scattered Clouds 3500 ft
Mostly Cloudy 4200 ft
Dew Point 45 °F
Humidity 62%
Rainfall 0.00 in
Snow Depth Not available.
UV 0 out of 12
Pollen 5.40 out of 12
Air Quality Not available.
Flu Activity Not available.
METAR KANJ 040755Z AUTO 17003KT 10SM FEW012 SCT035 BKN042 14/12 A2979 RMK AO2 SLP086 T01390122

More Conditions Fewer Conditions

Pressure 29.79 in
Visibility 10.0 miles
Clouds Few 1200 ft
Scattered Clouds 3500 ft
Mostly Cloudy 4200 ft
Dew Point 45 °F
Humidity 62%
Rainfall 0.00 in
Snow Depth Not available.
UV 0 out of 12
Pollen 5.40 out of 12
Air Quality Not available.
Flu Activity Not available.
METAR KANJ 040755Z AUTO 17003KT 10SM FEW012 SCT035 BKN042 14/12 A2979 RMK AO2 SLP086 T01390122

More Conditions Fewer Conditions

Nowcast | as of 4:00 am EDT on August 4, 2015

At 5 am...mostly cloudy. Isolated showers. Temperature 57. Light winds. At 7 am...mostly cloudy. Isolated showers. Temperature 57. Light winds. At 9 am...mostly cloudy. Temperature 58. West winds 6 mph. At 11 am...mostly cloudy. Temperature 60. Northwest winds 9 mph.

×

10-Day Weather Forecast

×

Almanac

Astronomy

Aug. 04, 2015 Rise Set
Actual Time
Civil Twilight
Nautical Twilight
Astronomical Twilight
Moon
Length of Visible Light
Length of Day
Tomorrow will be .
, % of the Moon is Illuminated

Today's Extremes

State Highs State Lows

Community

WunderPhotos

Upload Photos

1,843,877 photos uploaded!

WunderBlogs® & News

Nearby

Air Quality

  Air Quality AQ Index Pollutant
Not available.

Snow Depth

Station Depth Elevation

Earthquake Activity

City Distance Mag. Time & Date
Minimum magnitude displayed is 2.5.

Coastal Water Temperatures

Place Temperature

Stations

Nearby Weather Stations

Station Location Temp. Windchill Dew Point Humidity Wind Precip. Elev Updated Type